»·PEaware :: N210AR KBUR-KSNA

N210AR :: KBUR-KSNA

FLIGHT INFORMATION

Flight Status: Arrived
Operator: Privately registered:
United States
More flights under this callsign
Pilot: Max S. (16657)
Aircraft: CESSNA 172 SKYHAWK
(C172)
More flights by this aircraft type
Origin: KBUR Bob Hope-Burbank
United States
Destination: KSNA John Wayne-Orange Co
United States
More flights between these airports :: More routes between these airports
Route:
File this flight plan on PilotEdge
Remarks:
Altitude:
(Current/Filed)
2,500ft
Speed:
(Current/Filed)
100kts
Departed: 20-Jun-20 09:38 AM
Arrived: 20-Jun-20 10:17 AM
Distance/Time
Traveled:
40nm/0:39
Distance/Time
To Go:
Arrived

Flight Plot

Page will automatically refresh every two minutes.


Map Options




Map Legend


Flown Route
Filed Route
Departure Airport
Arrival Airport
Navaid (VOR, NDB)
Fix

Horizontal Profiles

Position Reports

Time Latitude Longitude Heading Altitude Ground
Speed
20-Jun-20 08:39 34.196224 -118.367802 1 725ft 0kts
20-Jun-20 08:39 34.196224 -118.367802 1 725ft 0kts
20-Jun-20 08:41 34.196224 -118.367802 1 725ft 0kts
20-Jun-20 08:42 34.196224 -118.367802 1 725ft 0kts
20-Jun-20 08:42 34.196224 -118.367802 1 725ft 0kts
20-Jun-20 08:43 34.196224 -118.367802 1 725ft 0kts
20-Jun-20 08:44 34.196224 -118.367802 1 725ft 0kts
20-Jun-20 08:45 34.196224 -118.367802 1 725ft 0kts
20-Jun-20 08:46 34.196224 -118.367802 1 725ft 0kts
20-Jun-20 08:47 34.196224 -118.367802 1 725ft 0kts
20-Jun-20 08:48 34.196224 -118.367802 1 725ft 0kts
20-Jun-20 08:49 34.196224 -118.367802 1 725ft 0kts
20-Jun-20 08:50 34.196224 -118.367802 1 725ft 0kts
20-Jun-20 08:51 34.196224 -118.367802 1 725ft 0kts
20-Jun-20 08:52 34.196224 -118.367802 1 725ft 0kts
20-Jun-20 08:53 34.196224 -118.367802 1 725ft 0kts
20-Jun-20 08:54 34.196224 -118.367802 1 725ft 0kts
20-Jun-20 08:55 34.196224 -118.367802 1 725ft 0kts
20-Jun-20 08:56 34.196224 -118.367802 1 725ft 0kts
20-Jun-20 08:57 34.196224 -118.367802 1 725ft 0kts
20-Jun-20 08:58 34.196224 -118.367802 1 725ft 0kts
20-Jun-20 08:59 34.196224 -118.367802 1 725ft 0kts
20-Jun-20 09:00 34.196224 -118.367802 1 725ft 0kts
20-Jun-20 09:01 34.196224 -118.367802 1 725ft 0kts
20-Jun-20 09:02 34.196224 -118.367802 1 725ft 0kts
20-Jun-20 09:03 34.196224 -118.367802 1 725ft 0kts
20-Jun-20 09:04 34.196224 -118.367802 1 725ft 0kts
20-Jun-20 09:05 34.196224 -118.367802 1 725ft 0kts
20-Jun-20 09:06 34.196224 -118.367802 1 725ft 0kts
20-Jun-20 09:07 34.196224 -118.367802 1 725ft 0kts
20-Jun-20 09:08 34.196224 -118.367802 1 725ft 0kts
20-Jun-20 09:09 34.196224 -118.367802 1 725ft 0kts
20-Jun-20 09:10 34.196224 -118.367802 1 725ft 0kts
20-Jun-20 09:11 34.196224 -118.367802 1 725ft 0kts
20-Jun-20 09:12 34.196224 -118.367802 1 725ft 0kts
20-Jun-20 09:13 34.196224 -118.367802 1 725ft 0kts
20-Jun-20 09:14 34.196224 -118.367802 1 725ft 0kts
20-Jun-20 09:15 34.196224 -118.367802 1 725ft 0kts
20-Jun-20 09:16 34.196224 -118.367802 1 725ft 0kts
20-Jun-20 09:17 34.196224 -118.367802 1 725ft 0kts
20-Jun-20 09:18 34.196224 -118.367802 1 725ft 0kts
20-Jun-20 09:19 34.196224 -118.367802 1 725ft 0kts
20-Jun-20 09:20 34.196224 -118.367802 1 725ft 0kts
20-Jun-20 09:21 34.196224 -118.367802 1 725ft 0kts
20-Jun-20 09:22 34.196224 -118.367802 1 725ft 0kts
20-Jun-20 09:23 34.196224 -118.367802 1 725ft 0kts
20-Jun-20 09:24 34.196224 -118.367802 1 725ft 0kts
20-Jun-20 09:25 34.196224 -118.367802 1 725ft 0kts
20-Jun-20 09:26 34.196224 -118.367802 1 725ft 0kts
20-Jun-20 09:27 34.196224 -118.367802 1 725ft 0kts
20-Jun-20 09:28 34.196224 -118.367802 1 725ft 0kts
20-Jun-20 09:29 34.196224 -118.367802 1 725ft 0kts
20-Jun-20 09:30 34.196224 -118.367802 1 725ft 0kts
20-Jun-20 09:31 34.196265 -118.367802 0 725ft 0kts
20-Jun-20 09:32 34.196265 -118.367802 0 725ft 0kts
20-Jun-20 09:33 34.196266 -118.367802 0 725ft 0kts
20-Jun-20 09:34 34.196222 -118.367239 91 724ft 9kts
20-Jun-20 09:35 34.197051 -118.368868 310 728ft 0kts
20-Jun-20 09:36 34.197051 -118.368868 310 728ft 0kts
20-Jun-20 09:37 34.197848 -118.363017 90 842ft 60kts
20-Jun-20 09:38 34.192917 -118.342204 148 1651ft 79kts
20-Jun-20 09:39 34.173052 -118.327525 146 2349ft 109kts
20-Jun-20 09:40 34.146256 -118.306220 151 2489ft 116kts
20-Jun-20 09:41 34.117544 -118.300155 232 2294ft 108kts
20-Jun-20 09:42 34.109935 -118.331978 235 2700ft 106kts
20-Jun-20 09:43 34.096941 -118.356962 241 2635ft 121kts
20-Jun-20 09:44 34.081512 -118.379893 230 2508ft 125kts
20-Jun-20 09:45 34.061155 -118.397830 204 2607ft 102kts
20-Jun-20 09:46 34.045905 -118.423282 222 2438ft 115kts
20-Jun-20 09:47 34.025078 -118.442304 218 2476ft 114kts
20-Jun-20 09:48 34.002830 -118.459822 175 2421ft 122kts
20-Jun-20 09:49 33.987291 -118.437859 136 2439ft 117kts
20-Jun-20 09:50 33.967789 -118.419256 145 2538ft 114kts
20-Jun-20 09:51 33.948035 -118.402552 153 2577ft 114kts
20-Jun-20 09:52 33.924554 -118.392916 186 2677ft 104kts
20-Jun-20 09:53 33.902288 -118.406809 210 2706ft 106kts
20-Jun-20 09:54 33.877444 -118.416595 170 2764ft 107kts
20-Jun-20 09:55 33.860800 -118.393976 122 2856ft 109kts
20-Jun-20 09:56 33.841865 -118.377747 176 2952ft 111kts
20-Jun-20 09:57 33.816290 -118.365049 152 3192ft 117kts
20-Jun-20 09:58 33.791398 -118.345757 145 3496ft 116kts
20-Jun-20 09:59 33.771385 -118.320437 108 3534ft 121kts
20-Jun-20 10:00 33.760960 -118.284875 108 3530ft 124kts
20-Jun-20 10:01 33.749574 -118.249599 108 3623ft 123kts
20-Jun-20 10:02 33.740742 -118.212784 104 3694ft 121kts
20-Jun-20 10:03 33.751017 -118.179757 61 3548ft 117kts
20-Jun-20 10:04 33.732291 -118.150150 136 3452ft 118kts
20-Jun-20 10:05 33.710302 -118.122022 132 3287ft 124kts
20-Jun-20 10:06 33.684867 -118.093674 131 2808ft 132kts
20-Jun-20 10:07 33.660680 -118.057615 130 2605ft 120kts
20-Jun-20 10:08 33.623277 -117.982257 99 2214ft 115kts
20-Jun-20 10:09 33.628888 -117.940104 51 1811ft 124kts
20-Jun-20 10:10 33.649890 -117.906108 44 1460ft 90kts
20-Jun-20 10:11 33.667985 -117.889365 26 1336ft 80kts
20-Jun-20 10:12 33.677772 -117.869824 87 1501ft 70kts
20-Jun-20 10:13 33.687745 -117.850547 28 1583ft 78kts
20-Jun-20 10:14 33.695369 -117.854260 207 1005ft 87kts
20-Jun-20 10:15 33.675845 -117.866910 209 60ft 42kts
20-Jun-20 10:16 33.673838 -117.867439 118 60ft 0kts
20-Jun-20 10:17 33.672481 -117.867870 208 60ft 17kts
20-Jun-20 10:18 33.669193 -117.870849 220 60ft 9kts
20-Jun-20 10:19 33.667824 -117.870633 216 60ft 0kts
20-Jun-20 10:21 33.667824 -117.870633 216 60ft 0kts
20-Jun-20 10:22 33.667824 -117.870633 216 60ft 0kts

Navigation Log

Ident Type
Flight plan parsing failed, navigation log unavailable